Helen D. Coppedge — WCA5274 — position and weather

sailwx.info

Track history (hours):
 
Tides and Currents Weather Stations Pressure Air Temp Water Temp Dewpoint Dewpoint Depression Visibility Wind Speed Wind Dir Waves Ship Positions

Helen D. Coppedge

Owner: MORAN TOWING CORPORATION, Philadelphia, PA. More information available from US FCC via Universal Licensing System and Coast Guard Vessel Documentation Center.

Last reported at 2016-Jun-29 15:34 UTC. Time now 2016-Jun-29 20:13 UTC.
Position N 40°46' W 074°00'.

Length 30 m; draft 4 m.

Type: Tug. MMSI: 367177370.

Date/timePositionNaut miles runAvg speedWind from/ knotsBaromVisibWave heightAir tempDewpointWater temp
2016-Jun-29 15:34N 40°46' W 074°00'5 4.8
2016-Jun-29 14:33N 40°42' W 074°02'3 2.5
2016-Jun-29 13:33N 40°39' W 074°02'0 0.0
2016-Jun-29 12:33N 40°39' W 074°02'7 0.4
2016-Jun-28 19:33N 40°45' W 073°58'6 6.0
2016-Jun-28 18:33N 40°40' W 074°02'2 1.6
2016-Jun-28 17:33N 40°39' W 074°02'1 0.9
2016-Jun-28 16:33N 40°40' W 074°02'0 0.0
2016-Jun-28 15:33N 40°40' W 074°02'2 2.4
2016-Jun-28 14:33N 40°42' W 074°02'  
2016-Jun-26 02:16N 40°40' W 074°02'0 0.6
2016-Jun-26 01:33N 40°39' W 074°02'1 0.1
2016-Jun-25 13:17N 40°40' W 074°00'3 0.3
2016-Jun-25 03:18N 40°39' W 074°04'1 1.9
2016-Jun-25 02:33N 40°39' W 074°02'0 0.4
2016-Jun-25 01:33N 40°40' W 074°02'4 4.1
2016-Jun-25 00:31N 40°44' W 074°01'  
2016-Jun-21 07:28N 40°42' W 074°01'  
Track history (hours):
 
Tides and Currents Weather Stations Pressure Air Temp Water Temp Dewpoint Dewpoint Depression Visibility Wind Speed Wind Dir Waves Ship Positions

Helen D. Coppedge

Owner: MORAN TOWING CORPORATION, Philadelphia, PA. More information available from US FCC via Universal Licensing System and Coast Guard Vessel Documentation Center.

Last reported at 2016-Jun-29 15:34 UTC. Time now 2016-Jun-29 20:13 UTC.
Position N 40°46' W 074°00'.

Length 30 m; draft 4 m.

Type: Tug. MMSI: 367177370.

Date/timePositionNaut miles runAvg speedWind from/ knotsBaromVisibWave heightAir tempDewpointWater temp
2016-Jun-29 15:34N 40°46' W 074°00'5 4.8
2016-Jun-29 14:33N 40°42' W 074°02'3 2.5
2016-Jun-29 13:33N 40°39' W 074°02'0 0.0
2016-Jun-29 12:33N 40°39' W 074°02'7 0.4
2016-Jun-28 19:33N 40°45' W 073°58'6 6.0
2016-Jun-28 18:33N 40°40' W 074°02'2 1.6
2016-Jun-28 17:33N 40°39' W 074°02'1 0.9
2016-Jun-28 16:33N 40°40' W 074°02'0 0.0
2016-Jun-28 15:33N 40°40' W 074°02'2 2.4
2016-Jun-28 14:33N 40°42' W 074°02'  
2016-Jun-26 02:16N 40°40' W 074°02'0 0.6
2016-Jun-26 01:33N 40°39' W 074°02'1 0.1
2016-Jun-25 13:17N 40°40' W 074°00'3 0.3
2016-Jun-25 03:18N 40°39' W 074°04'1 1.9
2016-Jun-25 02:33N 40°39' W 074°02'0 0.4
2016-Jun-25 01:33N 40°40' W 074°02'4 4.1
2016-Jun-25 00:31N 40°44' W 074°01'  
2016-Jun-21 07:28N 40°42' W 074°01'  

Dump ship's entire track history